createdAt,value
2018-09-12T00:01:42.878Z,13.38
2018-09-12T00:04:18.288Z,7.70
2018-09-12T00:06:53.660Z,7.42
2018-09-12T00:09:29.125Z,7.55
2018-09-12T00:12:04.675Z,7.95
2018-09-12T00:14:40.214Z,5.80
2018-09-12T00:17:15.669Z,14.87
2018-09-12T00:19:50.814Z,10.53
2018-09-12T00:22:26.305Z,6.30
2018-09-12T00:25:01.850Z,9.15
2018-09-12T00:27:37.379Z,8.23
2018-09-12T00:30:12.790Z,10.53
2018-09-12T00:32:48.438Z,8.70
2018-09-12T00:35:23.936Z,7.05
2018-09-12T00:37:59.595Z,8.83
2018-09-12T00:40:34.925Z,14.40
2018-09-12T00:43:10.280Z,12.07
2018-09-12T00:45:45.669Z,10.03
2018-09-12T00:48:21.387Z,9.93
2018-09-12T00:50:57.006Z,11.12
2018-09-12T00:53:32.660Z,15.15
2018-09-12T00:56:08.044Z,14.25
2018-09-12T00:58:43.425Z,13.03
2018-09-12T01:01:18.768Z,7.40
2018-09-12T01:03:54.106Z,5.30
2018-09-12T01:06:29.375Z,8.88
2018-09-12T01:09:05.479Z,13.72
2018-09-12T01:11:40.881Z,6.40
2018-09-12T01:14:16.259Z,5.72
2018-09-12T01:16:55.546Z,6.83
2018-09-12T01:19:31.455Z,10.03
2018-09-12T01:22:06.960Z,14.93
2018-09-12T01:24:42.476Z,8.08
2018-09-12T01:27:17.741Z,7.15
2018-09-12T01:29:52.919Z,12.28
2018-09-12T01:32:28.185Z,12.28
2018-09-12T01:35:03.751Z,5.40
2018-09-12T01:37:39.188Z,5.00
2018-09-12T01:40:14.639Z,8.98
2018-09-12T01:42:50.220Z,9.08
2018-09-12T01:45:25.889Z,6.60
2018-09-12T01:48:01.454Z,11.30
2018-09-12T01:50:36.942Z,7.58
2018-09-12T01:53:12.349Z,6.10
2018-09-12T01:55:48.069Z,9.10
2018-09-12T01:58:23.485Z,11.70
2018-09-12T02:00:59.028Z,10.88
2018-09-12T02:03:34.570Z,10.43
2018-09-12T02:06:10.098Z,12.25
2018-09-12T02:08:45.408Z,6.33
2018-09-12T02:11:20.823Z,10.43
2018-09-12T02:13:56.105Z,17.42
2018-09-12T02:16:31.705Z,14.20
2018-09-12T02:19:07.218Z,11.45
2018-09-12T02:21:42.918Z,9.68
2018-09-12T02:24:18.435Z,16.67
2018-09-12T02:26:53.746Z,9.25
2018-09-12T02:29:29.105Z,16.30
2018-09-12T02:32:04.487Z,7.65
2018-09-12T02:34:39.752Z,10.63
2018-09-12T02:37:15.144Z,12.43
2018-09-12T02:39:50.475Z,11.70
2018-09-12T02:42:25.960Z,6.28
2018-09-12T02:45:01.250Z,13.13
2018-09-12T02:47:38.400Z,8.98
2018-09-12T02:50:14.459Z,12.65
2018-09-12T02:52:49.872Z,14.70
2018-09-12T02:55:25.148Z,9.55
2018-09-12T02:58:00.456Z,12.63
2018-09-12T03:00:35.686Z,14.60
2018-09-12T03:03:11.300Z,12.43
2018-09-12T03:05:46.629Z,10.25
2018-09-12T03:08:22.017Z,8.63
2018-09-12T03:10:57.385Z,10.15
2018-09-12T03:13:32.788Z,12.73
2018-09-12T03:16:08.269Z,18.60
2018-09-12T03:18:43.722Z,11.57
2018-09-12T03:21:19.098Z,21.65
2018-09-12T03:23:54.507Z,6.03
2018-09-12T03:26:30.182Z,11.60
2018-09-12T03:29:05.667Z,11.30
2018-09-12T03:31:40.958Z,14.60
2018-09-12T03:34:16.229Z,11.80
2018-09-12T03:36:51.838Z,7.78
2018-09-12T03:39:27.416Z,8.98
2018-09-12T03:42:02.778Z,8.65
2018-09-12T03:44:38.295Z,8.00
2018-09-12T03:47:13.545Z,9.15
2018-09-12T03:49:48.972Z,16.95
2018-09-12T03:52:24.147Z,9.73
2018-09-12T03:54:59.750Z,20.30
2018-09-12T03:57:35.194Z,9.63
2018-09-12T04:00:10.700Z,15.93
2018-09-12T04:02:46.492Z,11.43
2018-09-12T04:05:21.837Z,9.43
2018-09-12T04:07:57.332Z,10.58
2018-09-12T04:10:32.729Z,11.22
2018-09-12T04:13:08.187Z,15.30
2018-09-12T04:15:43.809Z,10.65
2018-09-12T04:18:19.399Z,15.93
2018-09-12T04:20:54.747Z,15.50
2018-09-12T04:23:30.160Z,10.63
2018-09-12T04:26:05.718Z,17.35
2018-09-12T04:28:41.344Z,14.43
2018-09-12T04:31:16.816Z,10.85
2018-09-12T04:33:52.327Z,18.32
2018-09-12T04:36:27.617Z,9.93
2018-09-12T04:39:03.004Z,12.95
2018-09-12T04:41:38.107Z,14.40
2018-09-12T04:44:13.370Z,19.57
2018-09-12T04:46:48.867Z,15.05
2018-09-12T04:49:24.120Z,18.35
2018-09-12T04:51:59.730Z,25.37
2018-09-12T04:54:35.249Z,13.53
2018-09-12T04:57:10.639Z,13.22
2018-09-12T04:59:46.053Z,17.00
2018-09-12T05:02:21.285Z,11.85
2018-09-12T05:04:56.555Z,21.82
2018-09-12T05:07:31.816Z,24.57
2018-09-12T05:10:07.253Z,20.70
2018-09-12T05:12:42.977Z,26.15
2018-09-12T05:15:18.357Z,22.93
2018-09-12T05:17:53.687Z,22.52
2018-09-12T05:20:29.118Z,30.32
2018-09-12T05:23:04.466Z,24.15
2018-09-12T05:25:39.708Z,27.48
2018-09-12T05:28:14.968Z,21.02
2018-09-12T05:30:50.347Z,25.68
2018-09-12T05:33:26.118Z,27.55
2018-09-12T05:36:01.416Z,26.30
2018-09-12T05:38:36.839Z,22.65
2018-09-12T05:41:12.325Z,25.77
2018-09-12T05:43:47.826Z,25.52
2018-09-12T05:46:23.262Z,17.35
2018-09-12T05:48:58.747Z,25.15
2018-09-12T05:51:35.168Z,21.55
2018-09-12T05:54:10.720Z,21.48
2018-09-12T05:56:46.416Z,17.25
2018-09-12T05:59:21.926Z,23.57
2018-09-12T06:01:57.499Z,20.10
2018-09-12T06:04:33.099Z,17.15
2018-09-12T06:07:08.426Z,13.85
2018-09-12T06:09:43.575Z,19.85
2018-09-12T06:12:18.806Z,14.00
2018-09-12T06:14:54.153Z,14.50
2018-09-12T06:17:29.518Z,17.25
2018-09-12T06:20:04.771Z,14.15
2018-09-12T06:22:40.220Z,16.25
2018-09-12T06:25:15.609Z,12.18
2018-09-12T06:27:51.006Z,11.75
2018-09-12T06:30:26.365Z,13.65
2018-09-12T06:33:02.066Z,14.05
2018-09-12T06:35:37.495Z,14.87
2018-09-12T06:38:13.114Z,12.25
2018-09-12T06:40:48.495Z,17.12
2018-09-12T06:43:23.813Z,12.23
2018-09-12T06:45:59.419Z,9.55
2018-09-12T06:48:34.859Z,11.60
2018-09-12T06:51:10.446Z,11.18
2018-09-12T06:53:45.845Z,14.03
2018-09-12T06:56:21.105Z,10.18
2018-09-12T06:58:56.465Z,7.67
2018-09-12T07:01:31.805Z,13.32
2018-09-12T07:04:07.454Z,11.15
2018-09-12T07:06:42.904Z,11.57
2018-09-12T07:09:18.368Z,10.23
2018-09-12T07:11:53.874Z,10.85
2018-09-12T07:14:29.179Z,11.25
2018-09-12T07:17:04.562Z,9.25
2018-09-12T07:19:39.885Z,11.70
2018-09-12T07:22:15.177Z,14.75
2018-09-12T07:24:50.521Z,11.77
2018-09-12T07:27:25.789Z,14.73
2018-09-12T07:30:00.975Z,13.53
2018-09-12T07:32:36.375Z,8.48
2018-09-12T07:35:11.935Z,12.07
2018-09-12T07:37:47.588Z,8.40
2018-09-12T07:40:23.018Z,14.38
2018-09-12T07:42:58.269Z,12.03
2018-09-12T07:45:33.655Z,10.00
2018-09-12T07:48:08.976Z,12.82
2018-09-12T07:50:48.725Z,11.65
2018-09-12T07:53:24.218Z,11.88
2018-09-12T07:55:59.541Z,9.15
2018-09-12T07:58:35.106Z,10.68
2018-09-12T08:01:10.427Z,9.75
2018-09-12T08:03:45.829Z,6.62
2018-09-12T08:06:21.235Z,10.82
2018-09-12T08:08:56.649Z,7.37
2018-09-12T08:11:32.050Z,9.30
2018-09-12T08:14:07.662Z,7.58
2018-09-12T08:16:43.165Z,10.75
2018-09-12T08:19:18.636Z,13.45
2018-09-12T08:21:54.110Z,7.50
2018-09-12T08:24:29.569Z,7.80
2018-09-12T08:27:05.009Z,10.45
2018-09-12T08:29:40.470Z,11.93
2018-09-12T08:32:15.656Z,8.60
2018-09-12T08:34:51.168Z,5.75
2018-09-12T08:37:26.471Z,9.00
2018-09-12T08:40:01.766Z,5.87
2018-09-12T08:42:37.046Z,9.58
2018-09-12T08:45:12.409Z,6.72
2018-09-12T08:47:47.695Z,5.60
2018-09-12T08:50:24.475Z,11.68
2018-09-12T08:52:59.923Z,8.05
2018-09-12T08:55:35.451Z,10.25
2018-09-12T08:58:10.958Z,11.20
2018-09-12T09:00:46.639Z,10.32
2018-09-12T09:03:22.077Z,6.22
2018-09-12T09:05:57.494Z,7.15
2018-09-12T09:08:32.958Z,13.43
2018-09-12T09:11:08.458Z,5.80
2018-09-12T09:13:43.984Z,11.53
2018-09-12T09:16:19.516Z,5.67
2018-09-12T09:18:55.108Z,6.72
2018-09-12T09:21:31.330Z,6.35
2018-09-12T09:24:07.004Z,11.40
2018-09-12T09:26:42.335Z,8.00
2018-09-12T09:29:17.665Z,9.23
2018-09-12T09:31:53.125Z,8.18
2018-09-12T09:34:28.388Z,5.97
2018-09-12T09:37:03.725Z,4.85
2018-09-12T09:39:38.979Z,11.35
2018-09-12T09:42:14.237Z,8.80
2018-09-12T09:44:49.619Z,5.97
2018-09-12T09:47:24.946Z,7.83
2018-09-12T09:50:00.206Z,11.75
2018-09-12T09:52:35.369Z,9.30
2018-09-12T09:55:10.853Z,5.90
2018-09-12T09:57:46.158Z,13.28
2018-09-12T10:00:26.545Z,10.60
2018-09-12T10:03:07.091Z,10.13
2018-09-12T10:05:47.523Z,8.38
2018-09-12T10:08:29.174Z,7.17
2018-09-12T10:11:04.616Z,8.08
2018-09-12T10:13:39.868Z,8.55
2018-09-12T10:16:15.114Z,8.75
2018-09-12T10:18:50.845Z,12.88
2018-09-12T10:21:26.295Z,5.25
2018-09-12T10:24:01.805Z,7.97
2018-09-12T10:26:37.254Z,8.50
2018-09-12T10:29:12.506Z,10.95
2018-09-12T10:31:48.295Z,4.90
2018-09-12T10:34:23.648Z,5.28
2018-09-12T10:36:58.865Z,4.33
2018-09-12T10:39:34.325Z,4.45
2018-09-12T10:42:09.539Z,4.62
2018-09-12T10:44:44.805Z,5.70
2018-09-12T10:47:20.168Z,7.92
2018-09-12T10:49:55.639Z,4.10
2018-09-12T10:52:31.274Z,4.30
2018-09-12T10:55:06.947Z,5.78
2018-09-12T10:57:42.244Z,3.60
2018-09-12T11:00:17.661Z,5.50
2018-09-12T11:02:53.089Z,5.33
2018-09-12T11:05:28.518Z,4.80
2018-09-12T11:08:03.875Z,4.28
2018-09-12T11:10:39.193Z,3.15
2018-09-12T11:13:14.815Z,4.70
2018-09-12T11:15:50.404Z,3.92
2018-09-12T11:18:25.734Z,4.00
2018-09-12T11:21:01.127Z,5.42
2018-09-12T11:23:36.637Z,4.45
2018-09-12T11:26:12.225Z,7.25
2018-09-12T11:28:47.638Z,6.43
2018-09-12T11:31:23.051Z,3.73
2018-09-12T11:33:58.228Z,2.90
2018-09-12T11:36:33.595Z,4.97
2018-09-12T11:39:10.965Z,4.95
2018-09-12T11:41:46.368Z,8.08
2018-09-12T11:44:21.965Z,3.80
2018-09-12T11:46:57.372Z,6.90
2018-09-12T11:49:32.788Z,6.13
2018-09-12T11:52:08.177Z,5.92
2018-09-12T11:54:43.738Z,4.22
2018-09-12T11:57:19.056Z,8.75
2018-09-12T11:59:54.317Z,3.33
2018-09-12T12:02:29.645Z,9.05
2018-09-12T12:05:05.138Z,5.10
2018-09-12T12:07:40.699Z,4.10
2018-09-12T12:10:16.328Z,4.40
2018-09-12T12:12:51.819Z,4.17
2018-09-12T12:15:27.031Z,2.77
2018-09-12T12:18:02.496Z,3.40
2018-09-12T12:20:37.951Z,4.97
2018-09-12T12:23:13.500Z,2.57
2018-09-12T12:25:48.945Z,5.50
2018-09-12T12:28:24.459Z,3.70
2018-09-12T12:30:59.666Z,3.37
2018-09-12T12:33:35.129Z,5.23
2018-09-12T12:36:10.596Z,5.43
2018-09-12T12:38:46.029Z,3.80
2018-09-12T12:41:21.520Z,6.23
2018-09-12T12:43:57.068Z,3.70
2018-09-12T12:46:32.528Z,4.23
2018-09-12T12:49:08.018Z,3.10
2018-09-12T12:51:43.629Z,5.23
2018-09-12T12:54:19.102Z,3.47
2018-09-12T12:56:54.339Z,3.13
2018-09-12T12:59:29.745Z,5.10
2018-09-12T13:02:05.138Z,4.43
2018-09-12T13:04:40.433Z,6.73
2018-09-12T13:07:15.719Z,5.50
2018-09-12T13:09:51.398Z,6.87
2018-09-12T13:12:26.836Z,2.17
2018-09-12T13:15:02.428Z,3.07
2018-09-12T13:17:37.825Z,3.50
2018-09-12T13:20:13.416Z,7.00
2018-09-12T13:22:48.975Z,5.97
2018-09-12T13:25:24.518Z,3.83
2018-09-12T13:28:00.208Z,6.30
2018-09-12T13:30:35.758Z,6.43
2018-09-12T13:33:11.304Z,2.43
2018-09-12T13:35:46.677Z,6.03
2018-09-12T13:38:22.095Z,5.00
2018-09-12T13:40:57.598Z,2.10
2018-09-12T13:43:33.105Z,3.73
2018-09-12T13:46:09.078Z,4.23
2018-09-12T13:48:44.598Z,3.98
2018-09-12T13:51:19.855Z,2.80
2018-09-12T13:53:55.306Z,4.22
2018-09-12T13:56:30.919Z,3.80
2018-09-12T13:59:06.437Z,3.95
2018-09-12T14:01:42.111Z,3.10
2018-09-12T14:04:17.649Z,3.03
2018-09-12T14:06:53.238Z,2.90
2018-09-12T14:09:28.648Z,9.03
2018-09-12T14:12:04.857Z,11.63
2018-09-12T14:14:40.234Z,5.67
2018-09-12T14:17:15.813Z,2.90
2018-09-12T14:19:51.145Z,4.03
2018-09-12T14:22:26.430Z,4.30
2018-09-12T14:25:01.840Z,4.20
2018-09-12T14:27:37.227Z,3.20
2018-09-12T14:30:12.657Z,4.03
2018-09-12T14:32:48.468Z,6.90
2018-09-12T14:35:23.805Z,4.20
2018-09-12T14:37:59.166Z,5.00
2018-09-12T14:40:34.849Z,3.20
2018-09-12T14:43:10.906Z,2.10
2018-09-12T14:45:46.605Z,3.47
2018-09-12T14:48:21.986Z,3.90
2018-09-12T14:50:58.874Z,7.00
2018-09-12T14:53:34.454Z,3.43
2018-09-12T14:56:09.926Z,9.23
2018-09-12T14:58:45.509Z,3.70
2018-09-12T15:01:21.037Z,3.97
2018-09-12T15:03:56.457Z,5.00
2018-09-12T15:06:31.951Z,5.40
2018-09-12T15:09:09.883Z,6.00
2018-09-12T15:11:45.304Z,4.33
2018-09-12T15:14:20.887Z,2.43
2018-09-12T15:16:56.505Z,5.40
2018-09-12T15:19:31.927Z,5.60
2018-09-12T15:22:07.406Z,3.17
2018-09-12T15:24:42.926Z,6.55
2018-09-12T15:27:18.250Z,5.90
2018-09-12T15:29:53.844Z,4.70
2018-09-12T15:32:29.331Z,2.90
2018-09-12T15:35:05.224Z,6.10
2018-09-12T15:37:40.797Z,4.20
2018-09-12T15:40:16.066Z,3.75
2018-09-12T15:42:51.575Z,2.72
2018-09-12T15:45:26.852Z,5.12
2018-09-12T15:48:03.375Z,7.17
2018-09-12T15:50:38.735Z,3.20
2018-09-12T15:53:14.454Z,2.70
2018-09-12T15:55:50.137Z,3.17
2018-09-12T15:58:25.524Z,6.80
2018-09-12T16:01:01.224Z,7.22
2018-09-12T16:03:36.868Z,4.17
2018-09-12T16:06:12.549Z,4.72
2018-09-12T16:08:48.033Z,5.50
2018-09-12T16:11:23.716Z,3.37
2018-09-12T16:13:59.074Z,4.17
2018-09-12T16:16:34.745Z,4.83
2018-09-12T16:19:10.273Z,4.83
2018-09-12T16:21:45.769Z,6.50
2018-09-12T16:24:21.415Z,3.87
2018-09-12T16:26:56.866Z,5.12
2018-09-12T16:29:32.218Z,5.55
2018-09-12T16:32:07.540Z,3.20
2018-09-12T16:34:42.924Z,6.35
2018-09-12T16:37:18.517Z,4.85
2018-09-12T16:39:54.705Z,3.77
2018-09-12T16:42:30.135Z,7.42
2018-09-12T16:45:05.859Z,8.50
2018-09-12T16:47:41.468Z,3.33
2018-09-12T16:50:16.982Z,4.20
2018-09-12T16:52:52.535Z,4.33
2018-09-12T16:55:27.694Z,4.47
2018-09-12T16:58:03.156Z,5.58
2018-09-12T17:00:38.285Z,6.50
2018-09-12T17:03:13.775Z,3.85
2018-09-12T17:05:49.107Z,6.90
2018-09-12T17:08:24.477Z,7.97
2018-09-12T17:10:59.835Z,9.60
2018-09-12T17:13:35.545Z,3.90
2018-09-12T17:16:11.131Z,3.52
2018-09-12T17:18:48.438Z,6.05
2018-09-12T17:21:23.845Z,3.10
2018-09-12T17:23:59.304Z,4.87
2018-09-12T17:26:34.767Z,4.00
2018-09-12T17:29:10.309Z,5.58
2018-09-12T17:31:45.968Z,5.62
2018-09-12T17:34:21.548Z,4.28
2018-09-12T17:36:56.955Z,6.55
2018-09-12T17:39:32.381Z,5.97
2018-09-12T17:42:07.564Z,6.22
2018-09-12T17:44:42.925Z,5.72
2018-09-12T17:47:18.296Z,3.50
2018-09-12T17:49:53.646Z,6.25
2018-09-12T17:52:29.199Z,6.87
2018-09-12T17:55:04.785Z,6.30
2018-09-12T17:57:40.376Z,3.30
2018-09-12T18:00:15.698Z,4.00
2018-09-12T18:02:51.372Z,5.47
2018-09-12T18:05:26.817Z,3.95
2018-09-12T18:08:02.840Z,8.65
2018-09-12T18:10:38.469Z,5.78
2018-09-12T18:13:14.052Z,3.62
2018-09-12T18:15:49.529Z,8.30
2018-09-12T18:18:24.919Z,3.35
2018-09-12T18:21:00.478Z,6.58
2018-09-12T18:23:36.009Z,6.42
2018-09-12T18:26:11.509Z,3.47
2018-09-12T18:28:47.119Z,3.83
2018-09-12T18:31:22.485Z,4.53
2018-09-12T18:33:57.916Z,7.72
2018-09-12T18:36:33.349Z,6.42
2018-09-12T18:39:09.965Z,6.65
2018-09-12T18:41:45.458Z,8.13
2018-09-12T18:44:20.996Z,4.58
2018-09-12T18:46:56.581Z,10.18
2018-09-12T18:49:32.205Z,6.05
2018-09-12T18:52:07.638Z,5.35
2018-09-12T18:54:42.925Z,12.37
2018-09-12T18:57:18.287Z,3.65
2018-09-12T18:59:53.734Z,3.72
2018-09-12T19:02:29.529Z,5.25
2018-09-12T19:05:05.125Z,8.33
2018-09-12T19:07:40.629Z,6.03
2018-09-12T19:10:16.189Z,8.03
2018-09-12T19:12:51.757Z,5.80
2018-09-12T19:15:27.076Z,9.73
2018-09-12T19:18:02.666Z,6.15
2018-09-12T19:20:37.825Z,7.45
2018-09-12T19:23:13.358Z,9.58
2018-09-12T19:25:48.868Z,4.60
2018-09-12T19:28:24.458Z,7.85
2018-09-12T19:30:59.795Z,7.25
2018-09-12T19:33:35.145Z,4.80
2018-09-12T19:36:10.615Z,4.65
2018-09-12T19:38:46.095Z,10.20
2018-09-12T19:41:21.486Z,5.05
2018-09-12T19:43:56.769Z,6.37
2018-09-12T19:46:32.158Z,7.17
2018-09-12T19:49:07.847Z,10.58
2018-09-12T19:51:43.580Z,9.10
2018-09-12T19:54:18.939Z,8.08
2018-09-12T19:56:54.288Z,6.92
2018-09-12T19:59:30.168Z,8.33
2018-09-12T20:02:05.358Z,6.33
2018-09-12T20:04:40.658Z,4.08
2018-09-12T20:07:16.149Z,5.95
2018-09-12T20:09:52.125Z,9.43
2018-09-12T20:12:27.524Z,8.33
2018-09-12T20:15:02.997Z,5.55
2018-09-12T20:17:38.548Z,4.83
2018-09-12T20:20:14.265Z,11.08
2018-09-12T20:22:49.745Z,11.50
2018-09-12T20:25:25.278Z,11.48
2018-09-12T20:28:01.628Z,12.68
2018-09-12T20:30:36.998Z,4.45
2018-09-12T20:33:12.304Z,5.85
2018-09-12T20:35:47.554Z,7.12
2018-09-12T20:38:23.116Z,4.00
2018-09-12T20:40:58.656Z,7.05
2018-09-12T20:43:34.058Z,5.92
2018-09-12T20:46:09.365Z,6.00
2018-09-12T20:48:44.678Z,2.92
2018-09-12T20:51:19.947Z,4.80
2018-09-12T20:53:55.378Z,5.62
2018-09-12T20:56:30.717Z,10.32
2018-09-12T20:59:06.214Z,4.70
2018-09-12T21:01:41.575Z,10.15
2018-09-12T21:04:17.268Z,9.25
2018-09-12T21:06:52.884Z,12.15
2018-09-12T21:09:28.528Z,15.40
2018-09-12T21:12:04.070Z,5.97
2018-09-12T21:14:39.335Z,7.45
2018-09-12T21:17:14.655Z,8.78
2018-09-12T21:19:50.179Z,5.45
2018-09-12T21:22:25.838Z,6.42
2018-09-12T21:25:01.206Z,12.00
2018-09-12T21:27:36.577Z,7.58
2018-09-12T21:30:11.948Z,7.85
2018-09-12T21:32:47.174Z,9.88
2018-09-12T21:35:22.669Z,8.28
2018-09-12T21:37:58.997Z,9.70
2018-09-12T21:40:34.520Z,6.90
2018-09-12T21:43:10.027Z,8.98
2018-09-12T21:45:45.567Z,4.50
2018-09-12T21:48:20.935Z,13.60
2018-09-12T21:50:56.496Z,11.48
2018-09-12T21:53:31.767Z,9.83
2018-09-12T21:56:07.317Z,8.83
2018-09-12T21:58:42.988Z,10.23
2018-09-12T22:01:22.459Z,6.47
2018-09-12T22:03:57.955Z,5.90
2018-09-12T22:06:33.947Z,6.05
2018-09-12T22:09:12.509Z,17.85
2018-09-12T22:11:47.877Z,8.45
2018-09-12T22:14:23.238Z,5.85
2018-09-12T22:16:58.858Z,9.30
2018-09-12T22:19:34.685Z,10.85
2018-09-12T22:22:10.095Z,10.43
2018-09-12T22:24:45.448Z,13.43
2018-09-12T22:27:21.089Z,12.70
2018-09-12T22:29:56.409Z,15.55
2018-09-12T22:32:31.915Z,17.55
2018-09-12T22:35:07.354Z,15.95
2018-09-12T22:37:42.735Z,14.15
2018-09-12T22:40:18.255Z,11.93
2018-09-12T22:42:53.764Z,9.40
2018-09-12T22:45:29.227Z,9.75
2018-09-12T22:48:04.734Z,12.37
2018-09-12T22:50:40.089Z,10.98
2018-09-12T22:53:16.282Z,10.65
2018-09-12T22:55:52.145Z,12.20
2018-09-12T22:58:27.688Z,5.62
2018-09-12T23:01:03.268Z,9.35
2018-09-12T23:03:38.857Z,9.38
2018-09-12T23:06:14.618Z,13.58
2018-09-12T23:08:50.128Z,17.73
2018-09-12T23:11:25.565Z,16.15
2018-09-12T23:14:01.078Z,10.85
2018-09-12T23:16:36.705Z,11.12
2018-09-12T23:19:11.975Z,8.65
2018-09-12T23:21:47.498Z,11.48
2018-09-12T23:24:22.915Z,6.10
2018-09-12T23:26:58.539Z,8.35
2018-09-12T23:29:34.209Z,9.10
2018-09-12T23:32:09.488Z,13.43
2018-09-12T23:34:44.838Z,7.17
2018-09-12T23:37:20.195Z,6.97
2018-09-12T23:39:55.616Z,9.43
2018-09-12T23:42:31.115Z,10.43
2018-09-12T23:45:06.841Z,8.08
2018-09-12T23:47:42.635Z,13.08
2018-09-12T23:50:18.238Z,8.05
2018-09-12T23:52:53.892Z,11.20
2018-09-12T23:55:29.529Z,12.03
2018-09-12T23:58:04.967Z,9.98
